Time;durP1;ratioP1;P1;durP2;ratioP2;P2;SDS_P1;SDS_P2;PMS_P1;PMS_P2;Temp;Humidity;BMP_temperature;BMP_pressure;BME280_temperature;BME280_humidity;BME280_pressure;Samples;Min_cycle;Max_cycle;Signal;HPM_P1;HPM_P2
2021/07/24 00:01:28;;;;;;;5.80;4.13;;;;;;;;;;5059336;28;20037;-78
2021/07/24 00:03:54;;;;;;;6.13;3.60;;;;;;;;;;5041924;28;20033;-78
2021/07/24 00:06:20;;;;;;;5.68;4.20;;;;;;;;;;5041644;28;20029;-78
2021/07/24 00:08:45;;;;;;;5.93;3.90;;;;;;;;;;5058244;28;20579;-79
2021/07/24 00:11:11;;;;;;;6.07;4.18;;;;;;;;;;5058860;28;20500;-78
2021/07/24 00:13:39;;;;;;;6.68;4.00;;;;;;;;;;5042137;28;20044;-78
2021/07/24 00:16:05;;;;;;;5.88;3.78;;;;;;;;;;5042743;28;20424;-78
2021/07/24 00:18:33;;;;;;;6.32;3.92;;;;;;;;;;5059498;28;20036;-79
2021/07/24 00:21:03;;;;;;;7.35;3.95;;;;;;;;;;5042199;28;20051;-78
2021/07/24 00:23:28;;;;;;;8.15;4.00;;;;;;;;;;5047583;28;20676;-79
2021/07/24 00:25:54;;;;;;;7.47;4.55;;;;;;;;;;5082179;28;20533;-79
2021/07/24 00:28:19;;;;;;;8.95;4.43;;;;;;;;;;5081614;28;20050;-79
2021/07/24 00:30:45;;;;;;;7.07;4.28;;;;;;;;;;5099853;28;20081;-78
2021/07/24 00:33:26;;;;;;;6.13;4.07;;;;;;;;;;5082295;28;20024;-78
2021/07/24 00:35:53;;;;;;;6.95;4.03;;;;;;;;;;5064848;28;20131;-78
2021/07/24 00:38:22;;;;;;;6.32;4.15;;;;;;;;;;5081936;28;20478;-79
2021/07/24 00:40:59;;;;;;;7.38;4.15;;;;;;;;;;5081191;28;20028;-78
2021/07/24 00:43:28;;;;;;;7.03;4.13;;;;;;;;;;5064821;28;20036;-78
2021/07/24 00:45:56;;;;;;;8.43;3.95;;;;;;;;;;5071921;27;20046;-78
2021/07/24 00:48:24;;;;;;;6.00;3.95;;;;;;;;;;5105141;27;20371;-78
2021/07/24 00:51:11;;;;;;;6.25;4.03;;;;;;;;;;5121554;27;20035;-79
2021/07/24 00:53:37;;;;;;;4.82;4.00;;;;;;;;;;5121264;27;20043;-78
2021/07/24 00:56:05;;;;;;;5.05;3.90;;;;;;;;;;5104615;27;20032;-79
2021/07/24 00:58:35;;;;;;;11.73;4.32;;;;;;;;;;5104319;27;20034;-78
2021/07/24 01:01:02;;;;;;;7.30;4.30;;;;;;;;;;5104749;27;20478;-79
2021/07/24 01:03:29;;;;;;;9.07;4.10;;;;;;;;;;5104270;27;20058;-78
2021/07/24 01:05:57;;;;;;;5.60;3.63;;;;;;;;;;5105208;27;20116;-79
2021/07/24 01:08:23;;;;;;;6.13;3.92;;;;;;;;;;5104674;27;20027;-79
2021/07/24 01:10:52;;;;;;;5.68;4.40;;;;;;;;;;5103537;27;20486;-78
2021/07/24 01:13:19;;;;;;;6.65;3.83;;;;;;;;;;5090857;28;20419;-78
2021/07/24 01:15:50;;;;;;;7.25;4.30;;;;;;;;;;5080723;28;20032;-78
2021/07/24 01:18:20;;;;;;;6.05;3.97;;;;;;;;;;5063804;28;20032;-78
2021/07/24 01:20:48;;;;;;;8.65;4.55;;;;;;;;;;5064266;28;20023;-78
2021/07/24 01:23:17;;;;;;;6.72;4.05;;;;;;;;;;5079840;28;20103;-78
2021/07/24 01:25:46;;;;;;;9.38;4.40;;;;;;;;;;5079545;28;20415;-78
2021/07/24 01:28:13;;;;;;;7.13;4.18;;;;;;;;;;5063409;28;20035;-78
2021/07/24 01:30:43;;;;;;;7.53;3.88;;;;;;;;;;5079727;28;20032;-78
2021/07/24 01:33:10;;;;;;;7.47;4.03;;;;;;;;;;5063677;28;20028;-78
2021/07/24 01:35:44;;;;;;;8.40;5.32;;;;;;;;;;5063198;28;20046;-78
2021/07/24 01:38:10;;;;;;;6.40;4.40;;;;;;;;;;5063404;28;20032;-78
2021/07/24 01:40:38;;;;;;;6.80;4.25;;;;;;;;;;5080386;28;20043;-78
2021/07/24 01:43:04;;;;;;;11.75;5.18;;;;;;;;;;5072595;27;20035;-78
2021/07/24 01:45:35;;;;;;;6.22;4.30;;;;;;;;;;5096467;28;20036;-78
2021/07/24 01:48:02;;;;;;;8.45;4.20;;;;;;;;;;5100454;28;20095;-78
2021/07/24 01:53:13;;;;;;;12.90;4.50;;;;;;;;;;5117628;28;20031;-78
2021/07/24 01:55:47;;;;;;;8.48;5.00;;;;;;;;;;5083572;28;20566;-78
2021/07/24 01:58:22;;;;;;;7.47;4.72;;;;;;;;;;5100078;28;20118;-78
2021/07/24 02:00:55;;;;;;;6.57;4.75;;;;;;;;;;5116769;28;20098;-78
2021/07/24 02:03:34;;;;;;;7.15;4.97;;;;;;;;;;5083646;28;20027;-79
2021/07/24 02:06:37;;;;;;;7.97;4.38;;;;;;;;;;5088323;28;20066;-78
2021/07/24 02:09:24;;;;;;;8.43;4.45;;;;;;;;;;5085167;28;20047;-78
2021/07/24 02:11:56;;;;;;;7.15;4.72;;;;;;;;;;5098985;28;20460;-78
2021/07/24 02:14:24;;;;;;;7.00;4.80;;;;;;;;;;5082696;28;20088;-78
2021/07/24 02:17:02;;;;;;;7.32;4.43;;;;;;;;;;5081277;28;20490;-78
2021/07/24 02:19:36;;;;;;;7.13;4.32;;;;;;;;;;5062727;28;20121;-78
2021/07/24 02:22:04;;;;;;;8.60;4.43;;;;;;;;;;5079413;28;20028;-79
2021/07/24 02:24:32;;;;;;;7.43;4.20;;;;;;;;;;5079080;28;20069;-78
2021/07/24 02:27:05;;;;;;;7.00;4.38;;;;;;;;;;5078890;28;20110;-78
2021/07/24 02:29:39;;;;;;;12.82;4.75;;;;;;;;;;5079309;28;20032;-78
2021/07/24 02:32:05;;;;;;;8.15;4.63;;;;;;;;;;5063247;28;20248;-78
2021/07/24 02:34:30;;;;;;;9.88;4.35;;;;;;;;;;5062965;28;20028;-79
2021/07/24 02:36:56;;;;;;;8.32;5.10;;;;;;;;;;5078810;28;20043;-79
2021/07/24 02:39:21;;;;;;;7.90;4.55;;;;;;;;;;5079238;28;20035;-78
2021/07/24 02:41:49;;;;;;;10.23;4.93;;;;;;;;;;5079559;28;20024;-78
2021/07/24 02:44:15;;;;;;;11.20;4.45;;;;;;;;;;5079399;28;20031;-79
2021/07/24 02:46:41;;;;;;;12.50;4.15;;;;;;;;;;5078912;28;20085;-79
2021/07/24 02:49:11;;;;;;;7.65;4.70;;;;;;;;;;5078730;28;20039;-78
2021/07/24 02:51:41;;;;;;;8.27;4.55;;;;;;;;;;5079960;28;20510;-78
2021/07/24 02:54:08;;;;;;;8.43;4.63;;;;;;;;;;5062457;28;20403;-78
2021/07/24 02:56:50;;;;;;;7.15;4.97;;;;;;;;;;5078876;28;20111;-79
2021/07/24 02:59:19;;;;;;;10.27;4.80;;;;;;;;;;5062831;28;20495;-78
2021/07/24 03:01:45;;;;;;;6.30;4.32;;;;;;;;;;5062684;28;20043;-79
2021/07/24 03:04:10;;;;;;;9.85;4.50;;;;;;;;;;5079640;28;20520;-78
2021/07/24 03:06:36;;;;;;;5.25;4.47;;;;;;;;;;5078766;28;20036;-79
2021/07/24 03:09:04;;;;;;;8.27;4.32;;;;;;;;;;5079442;28;20081;-78
2021/07/24 03:11:30;;;;;;;4.93;4.00;;;;;;;;;;5062961;28;20036;-79
2021/07/24 03:13:58;;;;;;;5.80;4.32;;;;;;;;;;5079725;28;20115;-79
2021/07/24 03:16:24;;;;;;;7.90;4.25;;;;;;;;;;5093381;28;20031;-79
2021/07/24 03:18:49;;;;;;;8.60;4.50;;;;;;;;;;5118713;28;20062;-79
2021/07/24 03:21:15;;;;;;;6.70;4.65;;;;;;;;;;5100665;28;20131;-79
2021/07/24 03:23:41;;;;;;;8.70;4.43;;;;;;;;;;5100168;28;20073;-79
2021/07/24 03:26:10;;;;;;;7.03;4.80;;;;;;;;;;5100348;28;20043;-79
2021/07/24 03:28:36;;;;;;;7.78;5.28;;;;;;;;;;5083913;28;20172;-79
2021/07/24 03:31:02;;;;;;;6.22;4.32;;;;;;;;;;5100903;28;20055;-79
2021/07/24 03:33:31;;;;;;;12.38;4.88;;;;;;;;;;5083281;28;20039;-78
2021/07/24 03:35:57;;;;;;;6.45;5.22;;;;;;;;;;5118076;28;20038;-79
2021/07/24 03:38:23;;;;;;;10.30;4.22;;;;;;;;;;5099509;28;20031;-79
2021/07/24 03:40:51;;;;;;;9.45;4.72;;;;;;;;;;5083245;28;20032;-79
2021/07/24 03:43:16;;;;;;;8.25;4.35;;;;;;;;;;5116754;28;20040;-78
2021/07/24 03:45:43;;;;;;;4.70;3.83;;;;;;;;;;5082489;28;20442;-79
2021/07/24 03:48:08;;;;;;;6.13;4.65;;;;;;;;;;5099341;28;20122;-78
2021/07/24 03:50:34;;;;;;;6.50;4.47;;;;;;;;;;5099544;28;20056;-79
2021/07/24 03:53:00;;;;;;;6.13;4.30;;;;;;;;;;5099499;28;20040;-78
2021/07/24 03:55:26;;;;;;;7.78;4.65;;;;;;;;;;5099515;28;20036;-79
2021/07/24 03:57:55;;;;;;;6.40;4.10;;;;;;;;;;5098886;28;20027;-79
2021/07/24 04:00:22;;;;;;;7.35;4.22;;;;;;;;;;5082363;28;20031;-79
2021/07/24 04:02:47;;;;;;;4.85;4.13;;;;;;;;;;5099322;28;20442;-79
2021/07/24 04:05:13;;;;;;;9.23;3.53;;;;;;;;;;5082833;28;20070;-79
2021/07/24 04:07:39;;;;;;;9.13;4.53;;;;;;;;;;5083769;28;20043;-79
2021/07/24 04:10:10;;;;;;;7.68;4.57;;;;;;;;;;5100481;28;20036;-79
2021/07/24 04:12:37;;;;;;;8.38;5.57;;;;;;;;;;5100434;28;20035;-79
2021/07/24 04:15:04;;;;;;;7.20;5.60;;;;;;;;;;5116533;28;20035;-79
2021/07/24 04:17:32;;;;;;;9.27;4.88;;;;;;;;;;5084251;28;20096;-79
2021/07/24 04:20:00;;;;;;;9.02;4.68;;;;;;;;;;5117927;28;20027;-79
2021/07/24 04:22:26;;;;;;;10.93;4.90;;;;;;;;;;5083915;28;20028;-79
2021/07/24 04:24:51;;;;;;;9.90;4.30;;;;;;;;;;5083169;28;20058;-79
2021/07/24 04:27:17;;;;;;;5.95;4.35;;;;;;;;;;5100192;28;20038;-79
2021/07/24 04:29:43;;;;;;;7.13;4.43;;;;;;;;;;5100770;28;20031;-79
2021/07/24 04:32:08;;;;;;;9.98;4.35;;;;;;;;;;5120052;28;20035;-79
2021/07/24 04:34:34;;;;;;;7.55;4.25;;;;;;;;;;5103134;28;20143;-79
2021/07/24 04:37:00;;;;;;;10.02;4.60;;;;;;;;;;5139256;28;20036;-79
2021/07/24 04:39:25;;;;;;;8.60;4.32;;;;;;;;;;5140420;28;20059;-79
2021/07/24 04:41:51;;;;;;;7.47;4.80;;;;;;;;;;5104583;28;20041;-79
2021/07/24 04:44:17;;;;;;;15.45;5.22;;;;;;;;;;5103861;28;20055;-79
2021/07/24 04:46:43;;;;;;;8.45;4.40;;;;;;;;;;5107060;27;20039;-79
2021/07/24 04:49:11;;;;;;;10.15;4.55;;;;;;;;;;5125677;27;20482;-79
2021/07/24 04:51:37;;;;;;;7.13;4.65;;;;;;;;;;5108445;27;20035;-79
2021/07/24 04:54:04;;;;;;;7.90;4.80;;;;;;;;;;5107142;27;20073;-79
2021/07/24 04:56:31;;;;;;;16.50;5.63;;;;;;;;;;5124819;27;20035;-79
2021/07/24 04:58:57;;;;;;;14.23;5.63;;;;;;;;;;5113433;28;20042;-79
2021/07/24 05:01:22;;;;;;;11.93;5.60;;;;;;;;;;5123368;28;20118;-79
2021/07/24 05:03:49;;;;;;;13.02;4.90;;;;;;;;;;5104460;28;20036;-79
2021/07/24 05:06:15;;;;;;;9.10;5.88;;;;;;;;;;5104392;28;20032;-79
2021/07/24 05:08:42;;;;;;;9.15;5.40;;;;;;;;;;5087126;28;20096;-79
2021/07/24 05:11:09;;;;;;;6.78;5.05;;;;;;;;;;5121289;28;20087;-79
2021/07/24 05:13:35;;;;;;;14.15;6.25;;;;;;;;;;5103735;28;20039;-79
2021/07/24 05:16:03;;;;;;;9.10;5.28;;;;;;;;;;5086029;28;20028;-79
2021/07/24 05:18:29;;;;;;;6.53;5.03;;;;;;;;;;5103021;28;20047;-79
2021/07/24 05:20:54;;;;;;;13.50;5.68;;;;;;;;;;5085733;28;20036;-79
2021/07/24 05:23:20;;;;;;;13.48;5.38;;;;;;;;;;5109152;27;20557;-79
2021/07/24 05:25:47;;;;;;;7.63;6.10;;;;;;;;;;5106429;27;20130;-79
2021/07/24 05:28:14;;;;;;;15.10;6.38;;;;;;;;;;5106226;27;20051;-78
2021/07/24 05:30:39;;;;;;;9.73;6.03;;;;;;;;;;5106501;27;20031;-79
2021/07/24 05:33:06;;;;;;;8.98;6.00;;;;;;;;;;5087752;28;20148;-79
2021/07/24 05:35:31;;;;;;;14.02;5.65;;;;;;;;;;5102593;28;20402;-79
2021/07/24 05:37:58;;;;;;;15.98;5.88;;;;;;;;;;5101711;28;20493;-79
2021/07/24 05:40:24;;;;;;;9.63;6.30;;;;;;;;;;5101762;28;20042;-79
2021/07/24 05:42:50;;;;;;;12.23;5.28;;;;;;;;;;5102198;28;20406;-79
2021/07/24 05:45:16;;;;;;;9.50;6.57;;;;;;;;;;5102005;28;20474;-79
2021/07/24 05:47:43;;;;;;;12.93;5.57;;;;;;;;;;5101108;28;20464;-79
2021/07/24 05:50:09;;;;;;;13.52;5.80;;;;;;;;;;5101182;28;20423;-79
2021/07/24 05:52:35;;;;;;;9.65;6.05;;;;;;;;;;5118345;28;20089;-79
2021/07/24 05:55:00;;;;;;;9.02;6.47;;;;;;;;;;5115650;28;20031;-79
2021/07/24 05:57:26;;;;;;;10.77;5.65;;;;;;;;;;5100526;28;20116;-79
2021/07/24 05:59:51;;;;;;;10.82;6.25;;;;;;;;;;5100527;28;20023;-79
2021/07/24 06:02:17;;;;;;;9.02;6.00;;;;;;;;;;5082941;28;20505;-78
2021/07/24 06:04:43;;;;;;;10.30;6.10;;;;;;;;;;5117208;28;20061;-80
2021/07/24 06:07:09;;;;;;;7.47;5.45;;;;;;;;;;5118069;28;20379;-80
2021/07/24 06:09:35;;;;;;;9.95;5.22;;;;;;;;;;5083967;28;20028;-79
2021/07/24 06:12:01;;;;;;;6.63;5.25;;;;;;;;;;5083247;28;20501;-81
2021/07/24 06:14:27;;;;;;;20.08;5.70;;;;;;;;;;5100890;28;20036;-82
2021/07/24 06:16:53;;;;;;;11.80;5.75;;;;;;;;;;5100780;28;20042;-80
2021/07/24 06:19:20;;;;;;;11.90;5.10;;;;;;;;;;5100121;28;20059;-80
2021/07/24 06:21:48;;;;;;;10.25;5.40;;;;;;;;;;5099974;28;20031;-80
2021/07/24 06:24:19;;;;;;;9.80;5.18;;;;;;;;;;5100759;28;20525;-80
2021/07/24 06:26:46;;;;;;;7.18;5.13;;;;;;;;;;5101647;28;20456;-81
2021/07/24 06:29:12;;;;;;;10.35;5.13;;;;;;;;;;5084162;28;20402;-80
2021/07/24 06:31:38;;;;;;;7.25;4.90;;;;;;;;;;5101666;28;20035;-81
2021/07/24 06:34:04;;;;;;;9.70;5.25;;;;;;;;;;5084133;28;20050;-80
2021/07/24 06:36:30;;;;;;;6.88;4.45;;;;;;;;;;5117451;28;20371;-76
2021/07/24 06:38:56;;;;;;;12.25;4.63;;;;;;;;;;5086306;28;20031;-80
2021/07/24 06:41:22;;;;;;;18.73;4.53;;;;;;;;;;5118506;28;20041;-80
2021/07/24 06:43:47;;;;;;;7.50;4.63;;;;;;;;;;5096251;28;20445;-81
2021/07/24 06:46:16;;;;;;;6.97;4.53;;;;;;;;;;5081974;28;20032;-80
2021/07/24 06:48:42;;;;;;;16.65;4.55;;;;;;;;;;5067926;28;20061;-82
2021/07/24 06:51:08;;;;;;;7.10;4.35;;;;;;;;;;5083738;28;20477;-77
2021/07/24 06:53:35;;;;;;;9.13;4.20;;;;;;;;;;5117331;28;20505;-79
2021/07/24 06:56:02;;;;;;;10.32;3.97;;;;;;;;;;5082520;28;20050;-82
2021/07/24 06:58:27;;;;;;;7.10;4.30;;;;;;;;;;5101222;28;20498;-81
2021/07/24 07:00:53;;;;;;;9.90;4.00;;;;;;;;;;5082970;28;20032;-76
2021/07/24 07:03:18;;;;;;;7.63;4.00;;;;;;;;;;5097324;28;20043;-82
2021/07/24 07:05:43;;;;;;;6.22;4.05;;;;;;;;;;5083361;28;20047;-81
2021/07/24 07:08:09;;;;;;;7.20;4.07;;;;;;;;;;5082262;28;20096;-80
2021/07/24 07:10:34;;;;;;;8.50;3.67;;;;;;;;;;5084779;28;20036;-80
2021/07/24 07:13:00;;;;;;;6.20;4.18;;;;;;;;;;5080476;28;20074;-84
2021/07/24 07:15:27;;;;;;;6.22;4.00;;;;;;;;;;5061600;28;20031;-78
2021/07/24 07:17:53;;;;;;;8.55;3.70;;;;;;;;;;5078755;28;20027;-82
2021/07/24 07:20:18;;;;;;;10.88;4.40;;;;;;;;;;5078824;28;20123;-79
2021/07/24 07:22:44;;;;;;;7.90;3.85;;;;;;;;;;5061866;28;20027;-78
2021/07/24 07:25:10;;;;;;;5.43;3.60;;;;;;;;;;5086980;28;20551;-79
2021/07/24 07:27:43;;;;;;;7.43;4.30;;;;;;;;;;5085748;28;20483;-77
2021/07/24 07:30:11;;;;;;;8.75;4.65;;;;;;;;;;5083724;28;20067;-81
2021/07/24 07:32:36;;;;;;;6.78;4.63;;;;;;;;;;5100135;28;20088;-82
2021/07/24 07:35:02;;;;;;;11.40;4.28;;;;;;;;;;5104757;28;20032;-83
2021/07/24 07:37:28;;;;;;;12.15;4.50;;;;;;;;;;5087110;28;20032;-85
2021/07/24 07:39:56;;;;;;;6.82;4.82;;;;;;;;;;5100202;28;20031;-83
2021/07/24 07:42:21;;;;;;;10.57;5.13;;;;;;;;;;5100533;28;20058;-83
2021/07/24 07:44:47;;;;;;;9.70;4.57;;;;;;;;;;5116333;27;20053;-83
2021/07/24 07:47:13;;;;;;;8.20;5.03;;;;;;;;;;5079788;28;20403;-83
2021/07/24 07:49:38;;;;;;;7.82;4.57;;;;;;;;;;5078362;28;20136;-83
2021/07/24 07:52:05;;;;;;;7.55;4.70;;;;;;;;;;5079403;28;20433;-79
2021/07/24 07:54:33;;;;;;;8.75;4.82;;;;;;;;;;5077412;28;20483;-82
2021/07/24 07:56:59;;;;;;;10.13;4.97;;;;;;;;;;5078338;28;20028;-77
2021/07/24 07:59:25;;;;;;;13.05;5.28;;;;;;;;;;5059475;28;20035;-78
2021/07/24 08:01:51;;;;;;;10.85;5.20;;;;;;;;;;5074234;28;20036;-76
2021/07/24 08:04:16;;;;;;;9.07;4.47;;;;;;;;;;5058752;28;20081;-78
2021/07/24 08:06:43;;;;;;;14.82;5.10;;;;;;;;;;5059662;28;20036;-78
2021/07/24 08:09:09;;;;;;;13.55;4.97;;;;;;;;;;5076449;28;20039;-77
2021/07/24 08:11:36;;;;;;;7.90;5.03;;;;;;;;;;5078043;28;20040;-78
2021/07/24 08:14:02;;;;;;;11.15;5.60;;;;;;;;;;5060413;28;20028;-77
2021/07/24 08:16:27;;;;;;;9.90;5.28;;;;;;;;;;5076101;28;20030;-77
2021/07/24 08:18:53;;;;;;;9.18;5.68;;;;;;;;;;5076330;28;20074;-77
2021/07/24 08:21:18;;;;;;;8.73;5.40;;;;;;;;;;5079596;28;20030;-77
2021/07/24 08:23:44;;;;;;;10.40;5.50;;;;;;;;;;5089912;28;20480;-77
2021/07/24 08:26:10;;;;;;;6.97;5.03;;;;;;;;;;5077747;28;20032;-77
2021/07/24 08:28:36;;;;;;;7.70;5.70;;;;;;;;;;5076901;28;20131;-77
2021/07/24 08:31:01;;;;;;;8.15;5.63;;;;;;;;;;5078360;28;20033;-77
2021/07/24 08:33:27;;;;;;;11.18;5.75;;;;;;;;;;5078196;28;20036;-78
2021/07/24 08:35:55;;;;;;;8.27;5.43;;;;;;;;;;5078657;28;20036;-80
2021/07/24 08:38:22;;;;;;;9.23;5.85;;;;;;;;;;5062837;28;20430;-79
2021/07/24 08:40:48;;;;;;;13.13;6.28;;;;;;;;;;5060402;28;20390;-78
2021/07/24 08:43:14;;;;;;;15.35;6.00;;;;;;;;;;5076436;28;20032;-79
2021/07/24 08:45:40;;;;;;;12.20;5.65;;;;;;;;;;5078343;28;20029;-79
2021/07/24 08:48:12;;;;;;;7.03;5.38;;;;;;;;;;5077568;28;20036;-79
2021/07/24 08:50:40;;;;;;;13.93;5.50;;;;;;;;;;5078717;28;20036;-79
2021/07/24 08:53:07;;;;;;;6.70;5.68;;;;;;;;;;5070337;28;20063;-82
2021/07/24 08:55:34;;;;;;;6.57;5.00;;;;;;;;;;5058250;28;20495;-79
2021/07/24 08:58:00;;;;;;;9.68;5.28;;;;;;;;;;5074018;28;20033;-79
2021/07/24 09:00:27;;;;;;;8.90;4.93;;;;;;;;;;5073687;28;20086;-79
2021/07/24 09:02:59;;;;;;;10.80;5.63;;;;;;;;;;5041078;28;20060;-79
2021/07/24 09:05:28;;;;;;;12.95;6.07;;;;;;;;;;5057000;28;20503;-79
2021/07/24 09:07:54;;;;;;;9.52;5.45;;;;;;;;;;5057893;28;20408;-79
2021/07/24 09:10:20;;;;;;;11.48;5.65;;;;;;;;;;5056640;28;20040;-79
2021/07/24 09:12:48;;;;;;;10.50;5.45;;;;;;;;;;5056752;28;20043;-81
2021/07/24 09:15:18;;;;;;;8.73;6.30;;;;;;;;;;5042075;28;20055;-85
2021/07/24 09:17:45;;;;;;;8.32;5.15;;;;;;;;;;5076648;28;20049;-82
2021/07/24 09:20:13;;;;;;;12.88;5.70;;;;;;;;;;5063337;28;20028;-84
2021/07/24 09:22:43;;;;;;;11.48;5.50;;;;;;;;;;5062744;28;20510;-79
2021/07/24 09:25:17;;;;;;;11.98;6.72;;;;;;;;;;5081271;28;20488;-81
2021/07/24 09:27:51;;;;;;;19.13;5.75;;;;;;;;;;5098282;28;20428;-81
2021/07/24 09:30:29;;;;;;;12.45;6.03;;;;;;;;;;5081566;28;20036;-84
2021/07/24 09:33:14;;;;;;;11.93;5.88;;;;;;;;;;5097374;28;20036;-81
2021/07/24 09:35:44;;;;;;;9.57;6.32;;;;;;;;;;5097493;28;20053;-78
2021/07/24 09:38:12;;;;;;;12.40;6.38;;;;;;;;;;5097790;28;20115;-83
2021/07/24 09:40:40;;;;;;;12.55;6.00;;;;;;;;;;5098718;28;20390;-78
2021/07/24 09:43:35;;;;;;;7.85;6.00;;;;;;;;;;5098375;28;20093;-78
2021/07/24 09:46:21;;;;;;;9.57;6.32;;;;;;;;;;5078412;28;20040;-79
2021/07/24 09:48:50;;;;;;;;;;;;;;;;;;5077650;28;20041;-79
2021/07/24 09:51:34;;;;;;;10.18;6.07;;;;;;;;;;5059669;28;19916;-78
2021/07/24 09:54:00;;;;;;;12.48;5.88;;;;;;;;;;5076811;28;20041;-80
2021/07/24 09:56:39;;;;;;;7.63;6.32;;;;;;;;;;5076829;28;20046;-80
2021/07/24 09:59:16;;;;;;;11.43;5.78;;;;;;;;;;5077167;28;20036;-80
2021/07/24 10:01:43;;;;;;;13.57;6.43;;;;;;;;;;5060085;28;20044;-81
2021/07/24 10:04:10;;;;;;;11.98;6.35;;;;;;;;;;5059692;28;20024;-80
2021/07/24 10:06:41;;;;;;;9.40;5.70;;;;;;;;;;5059829;28;20032;-79
2021/07/24 10:09:07;;;;;;;8.27;6.55;;;;;;;;;;5058553;28;20036;-78
2021/07/24 10:11:32;;;;;;;18.80;6.50;;;;;;;;;;5075972;28;20553;-79
2021/07/24 10:13:58;;;;;;;13.32;6.25;;;;;;;;;;5059706;28;20037;-78
2021/07/24 10:16:24;;;;;;;12.75;6.82;;;;;;;;;;5095157;28;20032;-79
2021/07/24 10:18:50;;;;;;;16.67;7.18;;;;;;;;;;5087699;28;20395;-79
2021/07/24 10:21:19;;;;;;;11.25;6.47;;;;;;;;;;5073670;28;20024;-79
2021/07/24 10:23:46;;;;;;;9.30;6.60;;;;;;;;;;5080605;28;20049;-79
2021/07/24 10:26:17;;;;;;;13.55;6.80;;;;;;;;;;5074461;28;20051;-80
2021/07/24 10:28:56;;;;;;;11.05;7.07;;;;;;;;;;5075075;28;20028;-80
2021/07/24 10:31:44;;;;;;;15.20;6.57;;;;;;;;;;5075324;28;20036;-79
2021/07/24 10:34:12;;;;;;;20.15;6.45;;;;;;;;;;5054567;28;20119;-79
2021/07/24 10:36:42;;;;;;;12.93;6.07;;;;;;;;;;5055202;28;20037;-79
2021/07/24 10:39:10;;;;;;;13.20;7.30;;;;;;;;;;5055273;28;20112;-79
2021/07/24 10:41:37;;;;;;;8.48;6.10;;;;;;;;;;5056442;28;20041;-80
2021/07/24 10:44:13;;;;;;;13.07;7.57;;;;;;;;;;5054694;28;20039;-82
2021/07/24 10:46:41;;;;;;;10.60;6.88;;;;;;;;;;5056405;28;20043;-80
2021/07/24 10:49:07;;;;;;;11.95;5.93;;;;;;;;;;5055668;28;20041;-80
2021/07/24 10:51:55;;;;;;;14.18;6.80;;;;;;;;;;5071608;28;20044;-80
2021/07/24 10:54:25;;;;;;;10.98;6.35;;;;;;;;;;5056652;28;20036;-80
2021/07/24 10:56:51;;;;;;;11.55;6.60;;;;;;;;;;5055701;28;20380;-81
2021/07/24 10:59:17;;;;;;;11.23;6.40;;;;;;;;;;5058785;28;20579;-81
2021/07/24 11:01:44;;;;;;;10.57;7.00;;;;;;;;;;5075273;28;20060;-81
2021/07/24 11:04:32;;;;;;;10.90;6.70;;;;;;;;;;5059170;28;20036;-81
2021/07/24 11:07:16;;;;;;;13.05;7.10;;;;;;;;;;5075152;28;20127;-81
2021/07/24 11:09:42;;;;;;;9.53;6.70;;;;;;;;;;5058853;28;20452;-80
2021/07/24 11:12:12;;;;;;;17.20;7.07;;;;;;;;;;5058626;28;20063;-81
2021/07/24 11:14:37;;;;;;;13.40;7.53;;;;;;;;;;5076726;28;20028;-81
2021/07/24 11:17:05;;;;;;;14.30;7.32;;;;;;;;;;5076719;28;20062;-81
2021/07/24 11:19:37;;;;;;;10.77;6.53;;;;;;;;;;5058754;28;20024;-81
2021/07/24 11:22:16;;;;;;;15.10;7.07;;;;;;;;;;5058846;28;20040;-81
2021/07/24 11:24:43;;;;;;;10.63;7.15;;;;;;;;;;5058537;28;20055;-81
2021/07/24 11:27:10;;;;;;;12.32;7.25;;;;;;;;;;5058668;28;20040;-80
2021/07/24 11:29:38;;;;;;;12.25;6.85;;;;;;;;;;5059544;28;20040;-80
2021/07/24 11:32:04;;;;;;;12.35;7.07;;;;;;;;;;5059909;28;20048;-80
2021/07/24 11:34:31;;;;;;;8.70;7.13;;;;;;;;;;5076488;28;20044;-81
2021/07/24 11:36:58;;;;;;;12.25;7.47;;;;;;;;;;5058083;28;20094;-79
2021/07/24 11:39:29;;;;;;;9.43;6.60;;;;;;;;;;5057709;28;20032;-79
2021/07/24 11:41:56;;;;;;;14.20;7.28;;;;;;;;;;5058777;28;20090;-78
2021/07/24 11:44:26;;;;;;;11.60;7.25;;;;;;;;;;5074051;28;20042;-78
2021/07/24 11:47:01;;;;;;;10.50;6.85;;;;;;;;;;5065358;28;20048;-79
2021/07/24 11:49:27;;;;;;;;;;;;;;;;;;5038431;28;20036;-79
2021/07/24 11:51:54;;;;;;;9.68;7.32;;;;;;;;;;5052239;28;19912;-80
2021/07/24 11:54:34;;;;;;;8.63;6.57;;;;;;;;;;5057701;28;20513;-79
2021/07/24 11:57:01;;;;;;;10.98;6.90;;;;;;;;;;5060855;28;20052;-79
2021/07/24 11:59:30;;;;;;;8.40;6.55;;;;;;;;;;5061106;28;20033;-78
2021/07/24 12:01:57;;;;;;;11.13;6.63;;;;;;;;;;5060706;28;20036;-78
2021/07/24 12:04:22;;;;;;;11.70;6.80;;;;;;;;;;5078464;28;20040;-79
2021/07/24 12:07:00;;;;;;;9.48;6.55;;;;;;;;;;5079667;28;20040;-77
2021/07/24 12:09:26;;;;;;;8.77;6.57;;;;;;;;;;5077507;28;20078;-78
2021/07/24 12:12:00;;;;;;;15.80;6.75;;;;;;;;;;5076931;28;20033;-77
2021/07/24 12:14:28;;;;;;;10.02;7.65;;;;;;;;;;5066570;28;20124;-77
2021/07/24 12:17:12;;;;;;;9.25;7.90;;;;;;;;;;5056656;28;20090;-77
2021/07/24 12:19:42;;;;;;;18.10;7.72;;;;;;;;;;5056636;28;20029;-76
2021/07/24 12:22:11;;;;;;;11.90;7.43;;;;;;;;;;5056411;28;20033;-76
2021/07/24 12:24:37;;;;;;;10.02;7.05;;;;;;;;;;5055069;28;20092;-76
2021/07/24 12:27:10;;;;;;;10.65;7.05;;;;;;;;;;5055138;28;20068;-76
2021/07/24 12:29:54;;;;;;;21.05;8.45;;;;;;;;;;5056027;28;20090;-76
2021/07/24 12:32:22;;;;;;;20.67;9.93;;;;;;;;;;5055183;28;20048;-75
2021/07/24 12:34:50;;;;;;;9.20;7.18;;;;;;;;;;5056271;28;20124;-76
2021/07/24 12:37:32;;;;;;;16.25;8.35;;;;;;;;;;5054957;28;20043;-76
2021/07/24 12:40:20;;;;;;;13.32;7.15;;;;;;;;;;5056349;28;20029;-76
2021/07/24 12:42:47;;;;;;;16.10;7.60;;;;;;;;;;5056161;28;20029;-76
2021/07/24 12:45:31;;;;;;;14.30;7.35;;;;;;;;;;5055852;28;20033;-76
2021/07/24 12:48:15;;;;;;;16.95;8.40;;;;;;;;;;5054561;28;20057;-76
2021/07/24 12:50:40;;;;;;;14.30;7.38;;;;;;;;;;5055823;28;20041;-76
2021/07/24 12:53:06;;;;;;;16.20;7.03;;;;;;;;;;5055899;28;20033;-78
2021/07/24 12:55:35;;;;;;;11.10;8.27;;;;;;;;;;5039417;28;20120;-77
2021/07/24 12:58:00;;;;;;;10.52;7.28;;;;;;;;;;5057275;28;20041;-78
2021/07/24 13:00:30;;;;;;;11.88;7.30;;;;;;;;;;5059117;28;20055;-79
2021/07/24 13:02:56;;;;;;;12.52;6.97;;;;;;;;;;5057539;28;20040;-78
2021/07/24 13:05:23;;;;;;;14.70;7.63;;;;;;;;;;5057489;28;20029;-78
2021/07/24 13:08:03;;;;;;;17.48;9.48;;;;;;;;;;5055358;28;20480;-78
2021/07/24 13:10:29;;;;;;;12.57;8.05;;;;;;;;;;5057123;28;20507;-78
2021/07/24 13:12:55;;;;;;;12.63;7.40;;;;;;;;;;5057263;28;20044;-78
2021/07/24 13:15:21;;;;;;;12.82;7.80;;;;;;;;;;5074346;28;20060;-78
2021/07/24 13:17:46;;;;;;;9.55;7.07;;;;;;;;;;5060521;28;20081;-78
2021/07/24 13:20:13;;;;;;;8.88;7.15;;;;;;;;;;5076690;28;20028;-78
2021/07/24 13:22:38;;;;;;;11.60;7.15;;;;;;;;;;5060192;28;20130;-78
2021/07/24 13:30:25;;;;;;;10.35;7.22;;;;;;;;;;5098009;28;20036;-78
2021/07/24 13:32:51;;;;;;;14.32;7.95;;;;;;;;;;5098027;28;20171;-78
2021/07/24 13:35:17;;;;;;;12.05;6.88;;;;;;;;;;5098024;28;20032;-77
2021/07/24 13:37:43;;;;;;;13.93;7.10;;;;;;;;;;5096346;28;20019;-78
2021/07/24 13:40:10;;;;;;;12.38;7.78;;;;;;;;;;5113337;28;20036;-77
2021/07/24 13:42:35;;;;;;;8.35;7.18;;;;;;;;;;5096824;28;20510;-77
2021/07/24 13:45:01;;;;;;;12.68;7.53;;;;;;;;;;5110225;28;20044;-77
2021/07/24 13:47:27;;;;;;;14.25;8.15;;;;;;;;;;5058530;28;20063;-77
2021/07/24 13:49:52;;;;;;;19.70;8.15;;;;;;;;;;5077272;28;20025;-78
2021/07/24 13:52:17;;;;;;;10.55;7.25;;;;;;;;;;5076554;28;20458;-81
2021/07/24 13:54:43;;;;;;;13.35;8.43;;;;;;;;;;5061228;28;20073;-79
2021/07/24 13:57:08;;;;;;;13.85;7.40;;;;;;;;;;5077170;28;20032;-79
2021/07/24 13:59:34;;;;;;;10.25;7.25;;;;;;;;;;5078184;28;20039;-82
2021/07/24 14:02:02;;;;;;;12.35;7.40;;;;;;;;;;5076369;28;20036;-78
2021/07/24 14:04:27;;;;;;;18.15;7.90;;;;;;;;;;5059007;28;20090;-79
2021/07/24 14:06:55;;;;;;;22.45;8.70;;;;;;;;;;5060311;28;20426;-79
2021/07/24 14:09:21;;;;;;;14.93;7.72;;;;;;;;;;5076065;28;20037;-78
2021/07/24 14:11:47;;;;;;;15.35;7.78;;;;;;;;;;5059929;28;20533;-81
2021/07/24 14:14:13;;;;;;;12.07;8.43;;;;;;;;;;5073346;28;20036;-79
2021/07/24 14:16:39;;;;;;;10.50;7.68;;;;;;;;;;5080392;28;20446;-78
2021/07/24 14:19:05;;;;;;;14.15;7.95;;;;;;;;;;5095673;28;20028;-78
2021/07/24 14:21:31;;;;;;;19.08;7.82;;;;;;;;;;5097477;28;20156;-78
2021/07/24 14:23:56;;;;;;;14.32;8.32;;;;;;;;;;5089013;28;20581;-78
2021/07/24 14:26:22;;;;;;;13.18;8.70;;;;;;;;;;5074761;28;20040;-78
2021/07/24 14:28:48;;;;;;;12.90;8.35;;;;;;;;;;5074370;28;20071;-77
2021/07/24 14:31:16;;;;;;;12.23;8.10;;;;;;;;;;5073216;28;20439;-76
2021/07/24 14:33:41;;;;;;;18.08;8.35;;;;;;;;;;5074212;28;20516;-78
2021/07/24 14:36:08;;;;;;;16.85;8.00;;;;;;;;;;5058651;28;20063;-78
2021/07/24 14:38:34;;;;;;;12.80;7.97;;;;;;;;;;5057913;28;20436;-78
2021/07/24 14:41:09;;;;;;;15.95;8.73;;;;;;;;;;5074189;28;20059;-78
2021/07/24 14:43:35;;;;;;;11.52;7.70;;;;;;;;;;5058135;28;20074;-78
2021/07/24 14:46:00;;;;;;;11.43;7.72;;;;;;;;;;5057339;28;20056;-78
2021/07/24 14:48:26;;;;;;;10.55;7.75;;;;;;;;;;5074717;28;20040;-77
2021/07/24 14:50:52;;;;;;;11.00;8.10;;;;;;;;;;5076496;28;20036;-79
2021/07/24 14:53:17;;;;;;;11.80;8.25;;;;;;;;;;5075165;28;20028;-79